createdAt,value
2023-04-04T00:01:06.486Z,99.90
2023-04-04T00:03:34.675Z,99.90
2023-04-04T00:06:02.800Z,99.90
2023-04-04T00:08:32.177Z,99.90
2023-04-04T00:11:00.596Z,99.90
2023-04-04T00:13:29.059Z,99.90
2023-04-04T00:15:57.193Z,99.90
2023-04-04T00:18:25.988Z,99.90
2023-04-04T00:20:55.641Z,99.90
2023-04-04T00:23:23.700Z,99.90
2023-04-04T00:25:53.742Z,99.90
2023-04-04T00:28:22.429Z,99.90
2023-04-04T00:30:50.621Z,99.90
2023-04-04T00:33:18.752Z,99.90
2023-04-04T00:35:47.281Z,99.90
2023-04-04T00:38:15.399Z,99.90
2023-04-04T00:40:44.894Z,99.90
2023-04-04T00:43:15.020Z,99.90
2023-04-04T00:45:43.386Z,99.90
2023-04-04T00:48:11.652Z,99.90
2023-04-04T00:50:39.863Z,99.90
2023-04-04T00:53:08.258Z,99.90
2023-04-04T00:55:38.613Z,99.90
2023-04-04T00:58:07.353Z,99.90
2023-04-04T01:00:38.322Z,99.90
2023-04-04T01:03:07.749Z,99.90
2023-04-04T01:05:36.039Z,99.90
2023-04-04T01:08:04.148Z,99.90
2023-04-04T01:10:32.578Z,99.90
2023-04-04T01:13:02.250Z,99.90
2023-04-04T01:15:31.003Z,99.90
2023-04-04T01:18:04.060Z,99.90
2023-04-04T01:20:34.987Z,99.90
2023-04-04T01:23:05.717Z,99.90
2023-04-04T01:25:35.219Z,99.90
2023-04-04T01:28:05.032Z,99.90
2023-04-04T01:30:38.010Z,99.90
2023-04-04T01:33:14.889Z,99.90
2023-04-04T01:35:51.920Z,99.90
2023-04-04T01:38:25.782Z,99.90
2023-04-04T01:41:02.570Z,99.90
2023-04-04T01:43:32.338Z,99.90
2023-04-04T01:46:00.639Z,99.90
2023-04-04T01:48:28.935Z,99.90
2023-04-04T01:50:57.948Z,99.90
2023-04-04T01:53:26.398Z,99.90
2023-04-04T01:55:55.895Z,99.90
2023-04-04T01:58:24.215Z,99.90
2023-04-04T02:00:52.235Z,99.90
2023-04-04T02:03:20.763Z,99.90
2023-04-04T02:05:49.377Z,99.90
2023-04-04T02:08:17.371Z,99.90
2023-04-04T02:10:45.292Z,99.90
2023-04-04T02:13:14.681Z,99.90
2023-04-04T02:15:42.729Z,99.90
2023-04-04T02:18:10.704Z,99.90
2023-04-04T02:20:38.954Z,99.90
2023-04-04T02:23:07.060Z,99.90
2023-04-04T02:25:35.103Z,99.90
2023-04-04T02:28:03.013Z,99.90
2023-04-04T02:30:32.757Z,99.90
2023-04-04T02:33:01.117Z,99.90
2023-04-04T02:35:29.751Z,99.90
2023-04-04T02:37:57.800Z,99.90
2023-04-04T02:40:25.850Z,99.90
2023-04-04T02:42:54.203Z,99.90
2023-04-04T02:45:22.714Z,99.90
2023-04-04T02:47:54.019Z,99.90
2023-04-04T02:50:24.261Z,99.90
2023-04-04T02:52:55.035Z,99.90
2023-04-04T02:55:23.058Z,99.90
2023-04-04T02:57:52.560Z,99.90
2023-04-04T03:00:21.025Z,99.90
2023-04-04T03:02:56.257Z,99.90
2023-04-04T03:05:25.321Z,99.90
2023-04-04T03:07:56.121Z,99.90
2023-04-04T03:10:24.424Z,99.90
2023-04-04T03:12:52.374Z,99.90
2023-04-04T03:15:20.651Z,99.90
2023-04-04T03:17:48.709Z,99.90
2023-04-04T03:20:18.237Z,99.90
2023-04-04T03:22:46.896Z,99.90
2023-04-04T03:25:14.920Z,99.90
2023-04-04T03:27:43.023Z,99.90
2023-04-04T03:30:11.785Z,99.90
2023-04-04T03:32:40.384Z,99.90
2023-04-04T03:35:09.175Z,99.90
2023-04-04T03:37:38.486Z,99.90
2023-04-04T03:40:07.682Z,99.90
2023-04-04T03:42:35.653Z,99.90
2023-04-04T03:45:03.793Z,99.90
2023-04-04T03:47:31.825Z,99.90
2023-04-04T03:49:59.781Z,99.90
2023-04-04T03:52:28.303Z,99.90
2023-04-04T03:54:57.612Z,99.90
2023-04-04T03:57:25.555Z,99.90
2023-04-04T03:59:53.564Z,99.90
2023-04-04T04:02:21.460Z,99.90
2023-04-04T04:04:49.344Z,99.90
2023-04-04T04:07:17.398Z,99.90
2023-04-04T04:09:45.454Z,99.90
2023-04-04T04:12:15.487Z,99.90
2023-04-04T04:14:43.585Z,99.90
2023-04-04T04:17:11.756Z,99.90
2023-04-04T04:19:39.830Z,99.90
2023-04-04T04:22:08.104Z,99.90
2023-04-04T04:24:36.789Z,99.90
2023-04-04T04:27:04.949Z,99.90
2023-04-04T04:29:34.520Z,99.90
2023-04-04T04:32:02.727Z,99.90
2023-04-04T04:34:40.888Z,99.90
2023-04-04T04:37:39.684Z,99.90
2023-04-04T04:40:42.855Z,99.90
2023-04-04T04:43:35.109Z,99.90
2023-04-04T04:46:44.015Z,99.90
2023-04-04T04:49:37.209Z,99.90
2023-04-04T04:52:20.475Z,99.90
2023-04-04T05:01:14.500Z,99.90
2023-04-04T05:07:36.002Z,99.90
2023-04-04T05:13:27.764Z,99.90
2023-04-04T05:16:52.495Z,99.90
2023-04-04T05:23:17.981Z,99.90
2023-04-04T05:26:05.371Z,99.90
2023-04-04T05:29:02.182Z,99.90
2023-04-04T05:36:39.740Z,99.90
2023-04-04T05:53:37.197Z,99.90
2023-04-04T05:56:25.579Z,99.90
2023-04-04T05:59:45.392Z,99.90
2023-04-04T06:02:58.309Z,99.90
2023-04-04T06:05:38.594Z,99.90
2023-04-04T06:08:56.539Z,99.90
2023-04-04T07:34:11.256Z,99.90
2023-04-04T07:36:41.215Z,99.90
2023-04-04T07:39:09.430Z,99.90
2023-04-04T07:41:38.147Z,99.90
2023-04-04T07:44:06.462Z,99.90
2023-04-04T07:46:34.665Z,99.90
2023-04-04T07:49:03.389Z,99.90
2023-04-04T07:51:31.589Z,99.90
2023-04-04T07:54:32.086Z,99.90
2023-04-04T07:57:15.244Z,99.90
2023-04-04T07:59:48.779Z,99.90
2023-04-04T08:02:18.343Z,99.90
2023-04-04T08:04:49.866Z,99.90
2023-04-04T08:07:26.334Z,99.90
2023-04-04T08:10:06.009Z,99.90
2023-04-04T08:12:34.972Z,99.90
2023-04-04T08:15:04.165Z,99.90
2023-04-04T08:17:33.563Z,99.90
2023-04-04T08:20:01.987Z,99.90
2023-04-04T08:22:33.654Z,99.90
2023-04-04T08:25:03.886Z,99.90
2023-04-04T08:27:33.024Z,99.90
2023-04-04T08:30:05.300Z,99.90
2023-04-04T08:32:36.407Z,99.90
2023-04-04T08:35:10.169Z,99.90
2023-04-04T08:37:41.746Z,99.90
2023-04-04T08:40:20.033Z,99.90
2023-04-04T08:42:50.402Z,99.90
2023-04-04T08:45:20.838Z,99.90
2023-04-04T08:47:59.565Z,99.90
2023-04-04T08:50:29.525Z,99.90
2023-04-04T08:52:59.500Z,99.90
2023-04-04T08:55:29.936Z,99.90
2023-04-04T08:57:58.466Z,99.90
2023-04-04T09:00:26.715Z,99.90
2023-04-04T09:03:05.766Z,99.90
2023-04-04T09:05:36.064Z,99.90
2023-04-04T09:08:06.116Z,99.90
2023-04-04T09:10:38.011Z,99.90
2023-04-04T09:13:15.590Z,99.90
2023-04-04T09:15:47.985Z,99.90
2023-04-04T09:18:16.402Z,99.90
2023-04-04T09:20:45.787Z,99.90
2023-04-04T09:23:15.375Z,99.90
2023-04-04T09:28:22.339Z,99.90
2023-04-04T09:30:51.657Z,99.90
2023-04-04T09:33:21.654Z,99.90
2023-04-04T09:35:53.718Z,99.90
2023-04-04T09:38:24.220Z,99.90
2023-04-04T09:40:54.519Z,99.90
2023-04-04T09:43:26.107Z,99.90
2023-04-04T09:45:58.171Z,99.90
2023-04-04T09:48:33.060Z,99.90
2023-04-04T09:51:02.135Z,99.90
2023-04-04T09:53:31.372Z,99.90
2023-04-04T09:56:03.933Z,99.90
2023-04-04T09:58:36.313Z,99.90
2023-04-04T10:01:11.177Z,99.90
2023-04-04T10:03:40.749Z,99.90
2023-04-04T10:06:12.414Z,99.90
2023-04-04T10:08:44.983Z,99.90
2023-04-04T10:12:11.162Z,99.90
2023-04-04T10:14:43.422Z,99.90
2023-04-04T10:17:13.640Z,99.90
2023-04-04T10:19:42.650Z,99.90
2023-04-04T10:22:11.232Z,99.90
2023-04-04T10:24:39.923Z,99.90
2023-04-04T10:27:08.531Z,99.90
2023-04-04T10:29:44.001Z,99.90
2023-04-04T10:32:25.435Z,99.90
2023-04-04T10:35:02.072Z,99.90
2023-04-04T10:37:36.134Z,99.90
2023-04-04T10:40:09.202Z,99.90
2023-04-04T10:42:41.198Z,99.90
2023-04-04T10:45:21.344Z,99.90
2023-04-04T10:47:52.332Z,99.90
2023-04-04T10:50:22.166Z,99.90
2023-04-04T10:52:51.671Z,99.90
2023-04-04T10:55:20.912Z,99.90
2023-04-04T10:57:52.765Z,99.90
2023-04-04T11:00:28.793Z,99.90
2023-04-04T11:02:59.555Z,99.90
2023-04-04T11:05:33.328Z,99.90
2023-04-04T11:08:08.560Z,99.90
2023-04-04T11:10:41.737Z,99.90
2023-04-04T11:13:14.513Z,99.90
2023-04-04T11:15:57.639Z,99.90
2023-04-04T11:18:56.944Z,99.90
2023-04-04T11:21:28.046Z,99.90
2023-04-04T11:24:21.112Z,99.90
2023-04-04T11:26:50.273Z,99.90
2023-04-04T11:29:44.769Z,99.90
2023-04-04T11:32:34.767Z,99.90
2023-04-04T11:35:06.765Z,99.90
2023-04-04T11:37:47.356Z,99.90
2023-04-04T11:40:16.942Z,99.90
2023-04-04T11:42:45.377Z,99.90
2023-04-04T11:45:22.430Z,99.90
2023-04-04T11:47:53.264Z,99.90
2023-04-04T11:50:25.982Z,99.90
2023-04-04T11:52:56.546Z,99.90
2023-04-04T11:55:26.676Z,99.90
2023-04-04T11:57:55.811Z,99.90
2023-04-04T12:00:31.639Z,99.90
2023-04-04T12:05:48.792Z,99.90
2023-04-04T12:08:18.031Z,99.90
2023-04-04T12:10:46.777Z,99.90
2023-04-04T12:13:16.418Z,99.90
2023-04-04T12:15:44.991Z,99.90
2023-04-04T12:18:24.014Z,99.90
2023-04-04T12:20:52.918Z,99.90
2023-04-04T12:23:21.351Z,99.90
2023-04-04T12:25:54.124Z,99.90
2023-04-04T12:28:22.801Z,99.90
2023-04-04T12:30:52.106Z,99.90
2023-04-04T12:33:22.437Z,99.90
2023-04-04T12:35:54.883Z,99.90
2023-04-04T12:38:23.608Z,99.90
2023-04-04T12:40:53.125Z,99.90
2023-04-04T12:43:22.564Z,99.90
2023-04-04T12:45:56.143Z,99.90
2023-04-04T12:48:32.736Z,99.90
2023-04-04T12:51:04.819Z,99.90
2023-04-04T12:53:33.955Z,99.90
2023-04-04T12:56:06.561Z,99.90
2023-04-04T12:58:37.628Z,99.90
2023-04-04T13:01:07.029Z,99.90
2023-04-04T13:03:40.755Z,99.90
2023-04-04T13:06:13.670Z,99.90
2023-04-04T13:08:53.148Z,99.90
2023-04-04T13:11:22.354Z,99.90
2023-04-04T13:14:01.042Z,99.90
2023-04-04T13:19:06.979Z,99.90
2023-04-04T13:21:46.393Z,99.90
2023-04-04T13:24:20.006Z,99.90
2023-04-04T13:26:48.705Z,99.90
2023-04-04T13:29:17.420Z,99.90
2023-04-04T13:31:45.992Z,99.90
2023-04-04T13:34:16.584Z,99.90
2023-04-04T13:36:46.778Z,99.90
2023-04-04T13:39:15.536Z,99.90
2023-04-04T13:41:43.777Z,99.90
2023-04-04T13:44:11.971Z,99.90
2023-04-04T13:46:40.201Z,99.90
2023-04-04T13:49:10.950Z,99.90
2023-04-04T13:51:41.654Z,99.90
2023-04-04T13:54:10.822Z,99.90
2023-04-04T13:56:39.268Z,99.90
2023-04-04T13:59:09.091Z,99.90
2023-04-04T14:01:37.872Z,99.90
2023-04-04T14:04:16.577Z,99.90
2023-04-04T14:06:55.117Z,99.90
2023-04-04T14:11:56.550Z,99.90
2023-04-04T14:14:25.716Z,99.90
2023-04-04T14:16:54.690Z,99.90
2023-04-04T14:19:23.314Z,99.90
2023-04-04T14:21:53.349Z,99.90
2023-04-04T14:24:22.782Z,99.90
2023-04-04T14:26:51.630Z,99.90
2023-04-04T14:29:20.574Z,99.90
2023-04-04T14:31:49.023Z,99.90
2023-04-04T14:34:17.586Z,99.90
2023-04-04T14:36:46.310Z,99.90
2023-04-04T14:39:16.279Z,99.90
2023-04-04T14:41:45.054Z,99.90
2023-04-04T14:44:16.061Z,99.90
2023-04-04T14:46:44.976Z,99.90
2023-04-04T14:49:16.520Z,99.90
2023-04-04T14:51:44.873Z,99.90
2023-04-04T14:54:13.626Z,99.90
2023-04-04T14:56:45.064Z,99.90
2023-04-04T14:59:15.452Z,99.90
2023-04-04T15:01:44.241Z,99.90
2023-04-04T15:04:16.523Z,99.90
2023-04-04T15:06:48.254Z,99.90
2023-04-04T15:09:17.065Z,99.90
2023-04-04T15:11:47.816Z,99.90
2023-04-04T15:14:17.198Z,99.90
2023-04-04T15:16:55.964Z,99.90
2023-04-04T15:19:25.429Z,99.90
2023-04-04T15:21:55.640Z,99.90
2023-04-04T15:24:24.062Z,99.90
2023-04-04T15:26:56.449Z,99.90
2023-04-04T15:29:26.229Z,99.90
2023-04-04T15:31:54.731Z,99.90
2023-04-04T15:34:23.299Z,99.90
2023-04-04T15:36:53.313Z,99.90
2023-04-04T15:39:23.753Z,99.50
2023-04-04T15:41:54.914Z,99.90
2023-04-04T15:44:23.979Z,99.50
2023-04-04T15:46:52.931Z,98.80
2023-04-04T15:49:21.076Z,99.60
2023-04-04T15:51:49.207Z,98.80
2023-04-04T15:54:17.324Z,99.90
2023-04-04T15:56:45.365Z,99.60
2023-04-04T15:59:14.905Z,99.80
2023-04-04T16:01:43.225Z,99.30
2023-04-04T16:04:14.391Z,98.30
2023-04-04T16:06:42.519Z,98.50
2023-04-04T16:09:10.585Z,99.10
2023-04-04T16:11:39.365Z,98.90
2023-04-04T16:14:09.251Z,98.50
2023-04-04T16:16:41.502Z,99.90
2023-04-04T16:19:10.289Z,99.90
2023-04-04T16:21:38.697Z,99.90
2023-04-04T16:24:07.466Z,99.90
2023-04-04T16:26:35.621Z,99.10
2023-04-04T16:29:04.402Z,99.30
2023-04-04T16:31:32.732Z,99.90
2023-04-04T16:34:02.351Z,99.50
2023-04-04T16:36:31.084Z,99.90
2023-04-04T16:38:59.726Z,99.90
2023-04-04T16:43:56.369Z,99.90
2023-04-04T16:46:24.487Z,99.90
2023-04-04T16:48:52.533Z,99.90
2023-04-04T16:51:22.021Z,99.90
2023-04-04T16:53:53.057Z,99.90
2023-04-04T16:56:21.203Z,99.90
2023-04-04T16:58:49.339Z,99.90
2023-04-04T17:01:20.699Z,99.90
2023-04-04T17:03:48.958Z,99.90
2023-04-04T17:06:16.972Z,99.90
2023-04-04T17:08:49.391Z,99.90
2023-04-04T17:11:18.276Z,99.90
2023-04-04T17:13:47.672Z,99.90
2023-04-04T17:16:16.771Z,99.90
2023-04-04T17:18:46.970Z,99.90
2023-04-04T17:21:20.939Z,99.90
2023-04-04T17:23:55.327Z,99.90
2023-04-04T17:26:23.565Z,99.90
2023-04-04T17:28:52.606Z,99.90
2023-04-04T17:31:21.344Z,99.90
2023-04-04T17:33:58.786Z,99.90
2023-04-04T17:36:28.035Z,99.90
2023-04-04T17:41:49.044Z,99.90
2023-04-04T17:44:17.737Z,99.90
2023-04-04T17:47:28.684Z,99.90
2023-04-04T17:49:57.479Z,99.90
2023-04-04T17:52:27.296Z,99.90
2023-04-04T17:54:56.966Z,99.90
2023-04-04T17:57:28.884Z,99.90
2023-04-04T17:59:57.270Z,99.90
2023-04-04T18:02:25.737Z,99.90
2023-04-04T18:04:54.386Z,99.90
2023-04-04T18:07:27.464Z,99.90
2023-04-04T18:09:56.132Z,99.90
2023-04-04T18:12:30.250Z,99.90
2023-04-04T18:15:26.877Z,99.90
2023-04-04T18:17:56.752Z,99.90
2023-04-04T18:20:34.931Z,99.90
2023-04-04T18:23:07.579Z,99.90
2023-04-04T18:26:05.878Z,99.90
2023-04-04T18:34:39.715Z,99.90
2023-04-04T18:37:13.953Z,99.90
2023-04-04T18:39:42.108Z,99.90
2023-04-04T18:42:10.705Z,99.90
2023-04-04T18:44:40.837Z,99.90
2023-04-04T18:47:09.652Z,99.90
2023-04-04T18:49:38.245Z,99.90
2023-04-04T18:52:06.576Z,99.90
2023-04-04T18:54:36.211Z,99.90
2023-04-04T18:57:07.569Z,99.90
2023-04-04T19:02:24.436Z,99.90
2023-04-04T19:05:02.015Z,99.90
2023-04-04T19:07:35.976Z,99.90
2023-04-04T19:10:07.209Z,99.90
2023-04-04T19:12:36.560Z,99.90
2023-04-04T19:15:07.077Z,99.90
2023-04-04T19:17:38.562Z,99.90
2023-04-04T19:20:08.736Z,99.90
2023-04-04T19:22:37.381Z,99.90
2023-04-04T19:25:06.967Z,99.90
2023-04-04T19:27:36.203Z,99.90
2023-04-04T19:30:15.412Z,99.90
2023-04-04T19:32:47.293Z,99.90
2023-04-04T19:35:24.233Z,99.90
2023-04-04T19:40:49.534Z,99.90
2023-04-04T19:43:21.370Z,99.90
2023-04-04T19:45:51.118Z,99.90
2023-04-04T19:48:43.164Z,99.90
2023-04-04T19:51:13.365Z,99.90
2023-04-04T19:53:41.591Z,99.90
2023-04-04T19:56:12.973Z,99.90
2023-04-04T19:58:41.588Z,99.90
2023-04-04T20:01:11.304Z,99.90
2023-04-04T20:03:41.341Z,99.90
2023-04-04T20:06:11.077Z,99.90
2023-04-04T20:08:44.402Z,99.90
2023-04-04T20:11:13.888Z,99.90
2023-04-04T20:13:42.591Z,99.90
2023-04-04T20:16:12.836Z,99.90
2023-04-04T20:18:44.504Z,99.90
2023-04-04T20:21:15.094Z,99.90
2023-04-04T20:23:52.620Z,99.90
2023-04-04T20:26:44.048Z,99.90
2023-04-04T20:29:13.430Z,99.90
2023-04-04T20:31:43.825Z,99.90
2023-04-04T20:34:33.706Z,99.90
2023-04-04T20:37:07.351Z,99.90
2023-04-04T20:39:38.759Z,99.90
2023-04-04T20:42:17.869Z,99.90
2023-04-04T20:44:45.961Z,99.90
2023-04-04T20:47:41.676Z,99.90
2023-04-04T20:50:44.140Z,99.90
2023-04-04T20:53:19.068Z,99.90
2023-04-04T20:55:47.169Z,99.90
2023-04-04T20:58:29.232Z,99.90
2023-04-04T21:00:59.210Z,99.90
2023-04-04T21:03:36.872Z,99.90
2023-04-04T21:06:13.832Z,99.90
2023-04-04T21:08:44.719Z,99.90
2023-04-04T21:11:13.500Z,99.90
2023-04-04T21:13:42.773Z,99.90
2023-04-04T21:16:12.798Z,99.90
2023-04-04T21:18:42.647Z,99.90
2023-04-04T21:21:16.891Z,99.90
2023-04-04T21:23:50.733Z,99.90
2023-04-04T21:26:28.537Z,99.90
2023-04-04T21:28:57.638Z,99.90
2023-04-04T21:31:27.316Z,99.90
2023-04-04T21:33:58.075Z,99.90
2023-04-04T21:36:31.192Z,99.90
2023-04-04T21:39:00.971Z,99.90
2023-04-04T21:41:31.036Z,99.90
2023-04-04T21:44:00.442Z,99.90
2023-04-04T21:46:31.101Z,99.90
2023-04-04T21:48:59.129Z,99.90
2023-04-04T21:51:28.934Z,99.90
2023-04-04T21:53:57.382Z,99.90
2023-04-04T21:56:27.582Z,99.90
2023-04-04T21:58:55.860Z,99.90
2023-04-04T22:01:23.867Z,99.90
2023-04-04T22:03:51.992Z,99.90
2023-04-04T22:06:22.552Z,99.90
2023-04-04T22:08:51.824Z,99.90
2023-04-04T22:11:20.337Z,99.90
2023-04-04T22:13:49.421Z,99.90
2023-04-04T22:16:18.858Z,99.90
2023-04-04T22:18:48.165Z,99.90
2023-04-04T22:21:16.717Z,99.90
2023-04-04T22:23:44.804Z,99.90
2023-04-04T22:26:20.225Z,99.90
2023-04-04T22:28:48.275Z,99.90
2023-04-04T22:31:16.794Z,99.90
2023-04-04T22:33:45.503Z,99.90
2023-04-04T22:36:15.923Z,99.90
2023-04-04T22:38:44.068Z,99.90
2023-04-04T22:41:13.607Z,99.90
2023-04-04T22:43:41.488Z,99.90
2023-04-04T22:46:09.542Z,99.90
2023-04-04T22:48:41.188Z,99.90
2023-04-04T22:51:09.295Z,99.90
2023-04-04T22:53:37.407Z,99.90
2023-04-04T22:56:05.505Z,99.90
2023-04-04T22:58:34.913Z,99.90
2023-04-04T23:01:02.927Z,99.90
2023-04-04T23:03:31.102Z,99.90
2023-04-04T23:05:58.967Z,99.90
2023-04-04T23:08:26.998Z,99.90
2023-04-04T23:10:54.994Z,99.90
2023-04-04T23:13:23.241Z,99.90
2023-04-04T23:15:52.645Z,99.90
2023-04-04T23:18:21.958Z,99.90
2023-04-04T23:20:50.030Z,99.90
2023-04-04T23:23:18.151Z,99.90
2023-04-04T23:25:46.321Z,99.90
2023-04-04T23:28:14.352Z,99.90
2023-04-04T23:30:42.546Z,99.90
2023-04-04T23:33:12.440Z,99.90
2023-04-04T23:35:40.583Z,99.90
2023-04-04T23:38:13.274Z,99.90
2023-04-04T23:40:41.694Z,99.90
2023-04-04T23:43:09.956Z,99.90
2023-04-04T23:45:41.407Z,99.90
2023-04-04T23:48:09.591Z,99.90
2023-04-04T23:50:41.551Z,99.90
2023-04-04T23:53:09.863Z,99.90
2023-04-04T23:55:38.158Z,99.90
2023-04-04T23:58:06.912Z,99.90
